sensor_id;sensor_type;location;lat;lon;timestamp;pressure;altitude;pressure_sealevel;temperature;humidity
34185;BME280;20454;48.100;11.776;2022-09-25T00:01:23;95054.88;;;11.35;100.00
34185;BME280;20454;48.100;11.776;2022-09-25T00:03:48;95056.50;;;11.36;100.00
34185;BME280;20454;48.100;11.776;2022-09-25T00:06:20;95061.94;;;11.32;100.00
34185;BME280;20454;48.100;11.776;2022-09-25T00:08:46;95057.84;;;11.30;100.00
34185;BME280;20454;48.100;11.776;2022-09-25T00:11:14;95050.84;;;11.24;100.00
34185;BME280;20454;48.100;11.776;2022-09-25T00:13:41;95045.47;;;11.19;100.00
34185;BME280;20454;48.100;11.776;2022-09-25T00:16:14;95047.97;;;11.12;100.00
34185;BME280;20454;48.100;11.776;2022-09-25T00:18:41;95048.66;;;11.09;100.00
34185;BME280;20454;48.100;11.776;2022-09-25T00:21:26;95036.41;;;11.01;100.00
34185;BME280;20454;48.100;11.776;2022-09-25T00:23:56;95045.91;;;11.00;100.00
34185;BME280;20454;48.100;11.776;2022-09-25T00:26:25;95035.47;;;10.97;100.00
34185;BME280;20454;48.100;11.776;2022-09-25T00:28:52;95038.09;;;10.94;100.00
34185;BME280;20454;48.100;11.776;2022-09-25T00:31:19;95030.75;;;10.89;100.00
34185;BME280;20454;48.100;11.776;2022-09-25T00:33:50;95032.56;;;10.85;100.00
34185;BME280;20454;48.100;11.776;2022-09-25T00:36:16;95027.31;;;10.84;100.00
34185;BME280;20454;48.100;11.776;2022-09-25T00:38:41;95033.09;;;10.79;100.00
34185;BME280;20454;48.100;11.776;2022-09-25T00:41:07;95030.97;;;10.76;100.00
34185;BME280;20454;48.100;11.776;2022-09-25T00:43:40;95031.97;;;10.71;100.00
34185;BME280;20454;48.100;11.776;2022-09-25T00:46:18;95033.31;;;10.65;100.00
34185;BME280;20454;48.100;11.776;2022-09-25T00:48:49;95037.09;;;10.61;100.00
34185;BME280;20454;48.100;11.776;2022-09-25T00:51:17;95034.84;;;10.54;100.00
34185;BME280;20454;48.100;11.776;2022-09-25T00:53:44;95039.59;;;10.54;100.00
34185;BME280;20454;48.100;11.776;2022-09-25T00:56:10;95039.13;;;10.52;100.00
34185;BME280;20454;48.100;11.776;2022-09-25T00:58:37;95034.69;;;10.51;100.00
34185;BME280;20454;48.100;11.776;2022-09-25T01:01:05;95030.25;;;10.50;100.00
34185;BME280;20454;48.100;11.776;2022-09-25T01:03:32;95032.09;;;10.46;100.00
34185;BME280;20454;48.100;11.776;2022-09-25T01:05:59;95034.41;;;10.44;100.00
34185;BME280;20454;48.100;11.776;2022-09-25T01:08:25;95032.09;;;10.46;100.00
34185;BME280;20454;48.100;11.776;2022-09-25T01:10:52;95036.03;;;10.45;100.00
34185;BME280;20454;48.100;11.776;2022-09-25T01:13:18;95035.53;;;10.43;100.00
34185;BME280;20454;48.100;11.776;2022-09-25T01:21:30;95032.28;;;10.41;100.00
34185;BME280;20454;48.100;11.776;2022-09-25T01:29:21;95024.09;;;10.36;100.00
34185;BME280;20454;48.100;11.776;2022-09-25T01:31:59;95029.19;;;10.34;100.00
34185;BME280;20454;48.100;11.776;2022-09-25T01:37:23;95014.50;;;10.33;100.00
34185;BME280;20454;48.100;11.776;2022-09-25T01:40:06;95012.81;;;10.32;100.00
34185;BME280;20454;48.100;11.776;2022-09-25T01:42:44;95005.16;;;10.29;100.00
34185;BME280;20454;48.100;11.776;2022-09-25T01:45:20;95002.22;;;10.26;100.00
34185;BME280;20454;48.100;11.776;2022-09-25T01:47:48;95009.75;;;10.25;100.00
34185;BME280;20454;48.100;11.776;2022-09-25T01:50:19;95011.56;;;10.21;100.00
34185;BME280;20454;48.100;11.776;2022-09-25T01:52:50;95003.88;;;10.18;100.00
34185;BME280;20454;48.100;11.776;2022-09-25T01:55:45;95001.94;;;10.19;100.00
34185;BME280;20454;48.100;11.776;2022-09-25T02:00:44;95005.88;;;10.09;100.00
34185;BME280;20454;48.100;11.776;2022-09-25T02:03:35;95009.13;;;10.11;100.00
34185;BME280;20454;48.100;11.776;2022-09-25T02:06:05;95005.06;;;10.09;100.00
34185;BME280;20454;48.100;11.776;2022-09-25T02:08:39;95012.91;;;10.07;100.00
34185;BME280;20454;48.100;11.776;2022-09-25T02:11:08;95006.22;;;9.99;100.00
34185;BME280;20454;48.100;11.776;2022-09-25T02:13:42;95010.13;;;9.98;100.00
34185;BME280;20454;48.100;11.776;2022-09-25T02:16:14;95011.63;;;9.96;100.00
34185;BME280;20454;48.100;11.776;2022-09-25T02:18:41;95012.59;;;9.91;100.00
34185;BME280;20454;48.100;11.776;2022-09-25T02:26:41;95008.22;;;9.82;100.00
34185;BME280;20454;48.100;11.776;2022-09-25T02:29:07;95016.88;;;9.80;100.00
34185;BME280;20454;48.100;11.776;2022-09-25T02:31:50;95015.56;;;9.78;100.00
34185;BME280;20454;48.100;11.776;2022-09-25T02:34:18;95010.53;;;9.71;100.00
34185;BME280;20454;48.100;11.776;2022-09-25T02:36:44;95015.09;;;9.76;100.00
34185;BME280;20454;48.100;11.776;2022-09-25T02:39:10;95015.09;;;9.76;100.00
34185;BME280;20454;48.100;11.776;2022-09-25T02:41:48;95019.81;;;9.75;100.00
34185;BME280;20454;48.100;11.776;2022-09-25T02:44:20;95016.56;;;9.73;100.00
34185;BME280;20454;48.100;11.776;2022-09-25T02:47:33;95021.78;;;9.75;100.00
34185;BME280;20454;48.100;11.776;2022-09-25T02:50:28;95017.34;;;9.74;100.00
34185;BME280;20454;48.100;11.776;2022-09-25T02:55:50;95012.16;;;9.72;100.00
34185;BME280;20454;48.100;11.776;2022-09-25T02:58:25;95004.13;;;9.71;100.00
34185;BME280;20454;48.100;11.776;2022-09-25T03:00:52;95002.66;;;9.73;100.00
34185;BME280;20454;48.100;11.776;2022-09-25T03:03:19;95000.69;;;9.74;100.00
34185;BME280;20454;48.100;11.776;2022-09-25T03:05:46;94992.50;;;9.77;100.00
34185;BME280;20454;48.100;11.776;2022-09-25T03:08:13;94990.88;;;9.76;100.00
34185;BME280;20454;48.100;11.776;2022-09-25T03:10:58;94978.66;;;9.69;100.00
34185;BME280;20454;48.100;11.776;2022-09-25T03:13:26;94982.06;;;9.74;100.00
34185;BME280;20454;48.100;11.776;2022-09-25T03:16:01;94990.88;;;9.76;100.00
34185;BME280;20454;48.100;11.776;2022-09-25T03:18:28;94983.53;;;9.72;100.00
34185;BME280;20454;48.100;11.776;2022-09-25T03:20:55;94986.31;;;9.72;100.00
34185;BME280;20454;48.100;11.776;2022-09-25T03:23:21;94990.25;;;9.71;100.00
34185;BME280;20454;48.100;11.776;2022-09-25T03:25:46;94978.66;;;9.69;100.00
34185;BME280;20454;48.100;11.776;2022-09-25T03:28:12;94970.81;;;9.62;100.00
34185;BME280;20454;48.100;11.776;2022-09-25T03:30:38;94971.66;;;9.63;100.00
34185;BME280;20454;48.100;11.776;2022-09-25T03:33:09;94972.78;;;9.62;100.00
34185;BME280;20454;48.100;11.776;2022-09-25T03:35:39;94975.88;;;9.60;100.00
34185;BME280;20454;48.100;11.776;2022-09-25T03:38:05;94977.69;;;9.56;100.00
34185;BME280;20454;48.100;11.776;2022-09-25T03:40:32;94972.63;;;9.58;100.00
34185;BME280;20454;48.100;11.776;2022-09-25T03:42:58;94973.94;;;9.61;100.00
34185;BME280;20454;48.100;11.776;2022-09-25T03:45:24;94977.03;;;9.59;100.00
34185;BME280;20454;48.100;11.776;2022-09-25T03:47:49;94974.41;;;9.54;100.00
34185;BME280;20454;48.100;11.776;2022-09-25T03:50:15;94978.66;;;9.52;100.00
34185;BME280;20454;48.100;11.776;2022-09-25T03:52:41;94976.25;;;9.51;100.00
34185;BME280;20454;48.100;11.776;2022-09-25T03:55:07;94983.44;;;9.52;100.00
34185;BME280;20454;48.100;11.776;2022-09-25T03:57:32;94984.88;;;9.49;100.00
34185;BME280;20454;48.100;11.776;2022-09-25T03:59:58;94980.50;;;9.48;100.00
34185;BME280;20454;48.100;11.776;2022-09-25T05:33:02;94979.22;;;10.00;100.00
34185;BME280;20454;48.100;11.776;2022-09-25T05:35:30;94983.16;;;9.99;100.00
34185;BME280;20454;48.100;11.776;2022-09-25T05:37:56;94980.69;;;9.97;100.00
34185;BME280;20454;48.100;11.776;2022-09-25T05:40:22;94985.63;;;10.00;100.00
34185;BME280;20454;48.100;11.776;2022-09-25T05:42:48;94984.00;;;9.99;100.00
34185;BME280;20454;48.100;11.776;2022-09-25T05:45:14;94985.81;;;10.04;100.00
34185;BME280;20454;48.100;11.776;2022-09-25T05:47:41;94983.81;;;10.04;100.00
34185;BME280;20454;48.100;11.776;2022-09-25T05:50:09;94983.50;;;10.06;100.00
34185;BME280;20454;48.100;11.776;2022-09-25T05:52:35;94984.47;;;10.10;100.00
34185;BME280;20454;48.100;11.776;2022-09-25T05:55:02;94977.78;;;10.11;100.00
34185;BME280;20454;48.100;11.776;2022-09-25T05:57:32;94983.13;;;10.16;100.00
34185;BME280;20454;48.100;11.776;2022-09-25T06:00:00;94978.06;;;10.18;100.00
34185;BME280;20454;48.100;11.776;2022-09-25T06:02:26;94977.91;;;10.23;100.00
34185;BME280;20454;48.100;11.776;2022-09-25T06:04:52;94978.53;;;10.28;100.00
34185;BME280;20454;48.100;11.776;2022-09-25T06:07:18;94979.47;;;10.32;100.00
34185;BME280;20454;48.100;11.776;2022-09-25T06:09:44;94967.38;;;10.37;100.00
34185;BME280;20454;48.100;11.776;2022-09-25T06:12:09;94969.16;;;10.41;100.00
34185;BME280;20454;48.100;11.776;2022-09-25T06:14:35;94968.13;;;10.46;100.00
34185;BME280;20454;48.100;11.776;2022-09-25T06:17:02;94980.19;;;10.50;100.00
34185;BME280;20454;48.100;11.776;2022-09-25T06:19:28;94971.88;;;10.50;100.00
34185;BME280;20454;48.100;11.776;2022-09-25T06:21:55;94967.28;;;10.54;100.00
34185;BME280;20454;48.100;11.776;2022-09-25T06:24:22;94964.31;;;10.59;100.00
34185;BME280;20454;48.100;11.776;2022-09-25T06:26:48;94963.78;;;10.65;100.00
34185;BME280;20454;48.100;11.776;2022-09-25T06:29:14;94965.53;;;10.70;100.00
34185;BME280;20454;48.100;11.776;2022-09-25T06:31:39;94969.28;;;10.74;100.00
34185;BME280;20454;48.100;11.776;2022-09-25T06:34:05;94958.16;;;10.74;100.00
34185;BME280;20454;48.100;11.776;2022-09-25T06:36:31;94962.84;;;10.82;100.00
34185;BME280;20454;48.100;11.776;2022-09-25T06:38:57;94957.75;;;10.84;100.00
34185;BME280;20454;48.100;11.776;2022-09-25T06:41:23;94964.09;;;10.93;100.00
34185;BME280;20454;48.100;11.776;2022-09-25T06:43:50;94968.16;;;10.95;100.00
34185;BME280;20454;48.100;11.776;2022-09-25T06:46:15;94958.81;;;11.00;100.00
34185;BME280;20454;48.100;11.776;2022-09-25T06:48:43;94969.06;;;11.08;100.00
34185;BME280;20454;48.100;11.776;2022-09-25T06:51:09;94963.78;;;11.15;100.00
34185;BME280;20454;48.100;11.776;2022-09-25T06:53:34;94968.94;;;11.25;100.00
34185;BME280;20454;48.100;11.776;2022-09-25T06:56:00;94979.19;;;11.33;100.00
34185;BME280;20454;48.100;11.776;2022-09-25T06:58:27;94981.91;;;11.41;100.00
34185;BME280;20454;48.100;11.776;2022-09-25T07:00:55;94971.38;;;11.47;100.00
34185;BME280;20454;48.100;11.776;2022-09-25T07:03:22;94975.06;;;11.59;100.00
34185;BME280;20454;48.100;11.776;2022-09-25T07:19:03;94962.75;;;12.37;100.00
34185;BME280;20454;48.100;11.776;2022-09-25T07:21:29;94970.41;;;12.40;100.00
34185;BME280;20454;48.100;11.776;2022-09-25T07:23:56;94962.53;;;12.42;100.00
34185;BME280;20454;48.100;11.776;2022-09-25T07:26:29;94955.91;;;12.47;100.00
34185;BME280;20454;48.100;11.776;2022-09-25T07:28:59;94956.50;;;12.52;100.00
34185;BME280;20454;48.100;11.776;2022-09-25T07:31:27;94960.34;;;12.60;100.00
34185;BME280;20454;48.100;11.776;2022-09-25T07:33:53;94957.09;;;12.70;100.00
34185;BME280;20454;48.100;11.776;2022-09-25T07:36:19;94961.38;;;12.79;100.00
34185;BME280;20454;48.100;11.776;2022-09-25T07:38:49;94954.66;;;12.92;100.00
34185;BME280;20454;48.100;11.776;2022-09-25T07:41:15;94951.50;;;13.06;100.00
34185;BME280;20454;48.100;11.776;2022-09-25T07:43:41;94961.88;;;13.17;100.00
34185;BME280;20454;48.100;11.776;2022-09-25T07:46:08;94955.78;;;13.27;100.00
34185;BME280;20454;48.100;11.776;2022-09-25T07:48:34;94954.59;;;13.40;100.00
34185;BME280;20454;48.100;11.776;2022-09-25T07:51:04;94953.28;;;13.50;100.00
34185;BME280;20454;48.100;11.776;2022-09-25T07:53:30;94952.53;;;13.65;100.00
34185;BME280;20454;48.100;11.776;2022-09-25T07:55:59;94956.66;;;13.83;100.00
34185;BME280;20454;48.100;11.776;2022-09-25T07:58:26;94958.78;;;14.01;100.00
34185;BME280;20454;48.100;11.776;2022-09-25T08:00:57;94956.97;;;14.21;100.00
34185;BME280;20454;48.100;11.776;2022-09-25T08:03:23;94957.00;;;14.36;100.00
34185;BME280;20454;48.100;11.776;2022-09-25T08:05:59;94955.84;;;14.53;100.00
34185;BME280;20454;48.100;11.776;2022-09-25T08:08:26;94963.44;;;14.68;100.00
34185;BME280;20454;48.100;11.776;2022-09-25T08:10:53;94966.22;;;14.68;99.11
34185;BME280;20454;48.100;11.776;2022-09-25T08:13:19;94955.91;;;14.72;100.00
34185;BME280;20454;48.100;11.776;2022-09-25T08:15:45;94957.56;;;14.73;99.13
34185;BME280;20454;48.100;11.776;2022-09-25T08:18:13;94963.00;;;14.66;97.14
34185;BME280;20454;48.100;11.776;2022-09-25T08:20:38;94961.16;;;14.58;96.82
34185;BME280;20454;48.100;11.776;2022-09-25T08:23:05;94951.88;;;14.54;97.18
34185;BME280;20454;48.100;11.776;2022-09-25T08:25:31;94963.50;;;14.56;98.49
34185;BME280;20454;48.100;11.776;2022-09-25T08:27:56;94948.81;;;14.59;98.85
34185;BME280;20454;48.100;11.776;2022-09-25T08:30:22;94957.47;;;14.69;97.85
34185;BME280;20454;48.100;11.776;2022-09-25T08:32:48;94961.00;;;14.82;98.34
34185;BME280;20454;48.100;11.776;2022-09-25T08:35:13;94946.81;;;14.90;97.62
34185;BME280;20454;48.100;11.776;2022-09-25T08:37:40;94950.31;;;15.02;98.24
34185;BME280;20454;48.100;11.776;2022-09-25T08:40:19;94957.78;;;15.14;97.29
34185;BME280;20454;48.100;11.776;2022-09-25T08:42:48;94939.34;;;15.13;97.98
34185;BME280;20454;48.100;11.776;2022-09-25T08:48:36;94963.72;;;15.28;95.99
34185;BME280;20454;48.100;11.776;2022-09-25T08:51:23;94960.31;;;15.34;95.02
34185;BME280;20454;48.100;11.776;2022-09-25T08:53:49;94955.88;;;15.33;95.09
34185;BME280;20454;48.100;11.776;2022-09-25T08:56:15;94948.88;;;15.27;95.26
34185;BME280;20454;48.100;11.776;2022-09-25T08:58:48;94959.22;;;15.23;96.56
34185;BME280;20454;48.100;11.776;2022-09-25T09:01:22;94957.03;;;15.17;95.78
34185;BME280;20454;48.100;11.776;2022-09-25T09:04:02;94951.75;;;15.12;95.87
34185;BME280;20454;48.100;11.776;2022-09-25T09:06:32;94956.53;;;15.11;96.96
34185;BME280;20454;48.100;11.776;2022-09-25T09:09:12;94962.66;;;15.17;97.21
34185;BME280;20454;48.100;11.776;2022-09-25T09:11:43;94957.50;;;15.19;95.83
34185;BME280;20454;48.100;11.776;2022-09-25T09:14:15;94955.66;;;15.26;96.76
34185;BME280;20454;48.100;11.776;2022-09-25T09:16:44;94956.34;;;15.35;95.34
34185;BME280;20454;48.100;11.776;2022-09-25T09:19:10;94955.59;;;15.38;93.48
34185;BME280;20454;48.100;11.776;2022-09-25T09:21:40;94950.91;;;15.42;94.11
34185;BME280;20454;48.100;11.776;2022-09-25T09:35:23;94958.53;;;15.11;95.92
34185;BME280;20454;48.100;11.776;2022-09-25T09:38:00;94949.56;;;15.05;95.85
34185;BME280;20454;48.100;11.776;2022-09-25T09:43:48;94946.13;;;15.12;97.20
34185;BME280;20454;48.100;11.776;2022-09-25T09:46:26;94948.94;;;15.12;96.82
34185;BME280;20454;48.100;11.776;2022-09-25T09:49:09;94942.50;;;15.11;96.81
34185;BME280;20454;48.100;11.776;2022-09-25T09:51:40;94950.56;;;15.13;97.40
34185;BME280;20454;48.100;11.776;2022-09-25T09:54:21;94944.13;;;15.12;97.27
34185;BME280;20454;48.100;11.776;2022-09-25T09:56:50;94945.75;;;15.13;96.54
34185;BME280;20454;48.100;11.776;2022-09-25T09:59:19;94940.06;;;15.10;95.48
34185;BME280;20454;48.100;11.776;2022-09-25T10:01:59;94934.53;;;15.13;95.38
34185;BME280;20454;48.100;11.776;2022-09-25T10:04:31;94933.84;;;15.16;95.99
34185;BME280;20454;48.100;11.776;2022-09-25T10:07:09;94941.88;;;15.18;94.95
34185;BME280;20454;48.100;11.776;2022-09-25T10:09:36;94944.22;;;15.16;94.07
34185;BME280;20454;48.100;11.776;2022-09-25T10:12:22;94943.69;;;15.10;93.02
34185;BME280;20454;48.100;11.776;2022-09-25T10:14:49;94938.34;;;15.05;93.35
34185;BME280;20454;48.100;11.776;2022-09-25T10:17:15;94938.34;;;15.05;95.03
34185;BME280;20454;48.100;11.776;2022-09-25T10:20:04;94928.69;;;15.03;96.22
34185;BME280;20454;48.100;11.776;2022-09-25T10:22:38;94930.69;;;15.02;96.85
34185;BME280;20454;48.100;11.776;2022-09-25T10:25:07;94935.13;;;15.03;97.86
34185;BME280;20454;48.100;11.776;2022-09-25T10:27:34;94927.91;;;15.02;97.33
34185;BME280;20454;48.100;11.776;2022-09-25T10:32:28;94928.41;;;15.08;96.63
34185;BME280;20454;48.100;11.776;2022-09-25T10:34:54;94924.91;;;15.11;97.73
34185;BME280;20454;48.100;11.776;2022-09-25T10:37:20;94932.28;;;15.19;98.00
34185;BME280;20454;48.100;11.776;2022-09-25T10:40:26;94939.25;;;15.25;96.95
34185;BME280;20454;48.100;11.776;2022-09-25T10:43:19;94943.66;;;15.26;97.28
34185;BME280;20454;48.100;11.776;2022-09-25T10:45:46;94923.66;;;15.27;97.89
34185;BME280;20454;48.100;11.776;2022-09-25T10:48:32;94918.44;;;15.26;97.69
34185;BME280;20454;48.100;11.776;2022-09-25T10:51:17;94927.03;;;15.33;95.95
34185;BME280;20454;48.100;11.776;2022-09-25T10:53:45;94930.44;;;15.42;94.06
34185;BME280;20454;48.100;11.776;2022-09-25T10:56:22;94928.47;;;15.42;92.50
34185;BME280;20454;48.100;11.776;2022-09-25T10:58:55;94925.00;;;15.49;94.25
34185;BME280;20454;48.100;11.776;2022-09-25T11:01:34;94925.16;;;15.56;95.38
34185;BME280;20454;48.100;11.776;2022-09-25T11:04:10;94929.66;;;15.60;94.90
34185;BME280;20454;48.100;11.776;2022-09-25T11:06:42;94922.41;;;15.59;92.37
34185;BME280;20454;48.100;11.776;2022-09-25T11:09:20;94925.59;;;15.58;92.16
34185;BME280;20454;48.100;11.776;2022-09-25T11:11:46;94929.22;;;15.58;94.16
34185;BME280;20454;48.100;11.776;2022-09-25T11:14:26;94919.47;;;15.52;94.02
34185;BME280;20454;48.100;11.776;2022-09-25T11:16:58;94922.69;;;15.54;94.80
34185;BME280;20454;48.100;11.776;2022-09-25T11:19:29;94933.19;;;15.57;95.46
34185;BME280;20454;48.100;11.776;2022-09-25T11:22:17;94920.78;;;15.58;97.09
34185;BME280;20454;48.100;11.776;2022-09-25T11:27:40;94919.47;;;15.71;96.02
34185;BME280;20454;48.100;11.776;2022-09-25T11:30:18;94911.22;;;15.78;96.57
34185;BME280;20454;48.100;11.776;2022-09-25T11:33:10;94914.66;;;15.91;95.67
34185;BME280;20454;48.100;11.776;2022-09-25T11:36:04;94900.41;;;15.99;93.93
34185;BME280;20454;48.100;11.776;2022-09-25T11:41:35;94896.97;;;16.28;94.06
34185;BME280;20454;48.100;11.776;2022-09-25T11:44:33;94898.16;;;16.46;89.76
34185;BME280;20454;48.100;11.776;2022-09-25T11:49:56;94890.41;;;17.11;89.47
34185;BME280;20454;48.100;11.776;2022-09-25T11:52:48;94889.22;;;17.38;86.70
34185;BME280;20454;48.100;11.776;2022-09-25T11:58:27;94887.69;;;17.73;85.51
34185;BME280;20454;48.100;11.776;2022-09-25T12:12:51;94863.19;;;17.44;83.13
34185;BME280;20454;48.100;11.776;2022-09-25T12:21:37;94862.81;;;17.46;84.93
34185;BME280;20454;48.100;11.776;2022-09-25T12:26:54;94857.81;;;17.95;82.11
34185;BME280;20454;48.100;11.776;2022-09-25T12:35:49;94853.28;;;17.54;82.46
34185;BME280;20454;48.100;11.776;2022-09-25T12:44:35;94846.75;;;17.46;82.30
34185;BME280;20454;48.100;11.776;2022-09-25T12:47:11;94847.03;;;17.38;81.76
34185;BME280;20454;48.100;11.776;2022-09-25T12:50:03;94844.81;;;17.24;80.89
34185;BME280;20454;48.100;11.776;2022-09-25T12:53:01;94838.16;;;17.10;83.37
34185;BME280;20454;48.100;11.776;2022-09-25T12:55:44;94839.50;;;16.93;84.21
34185;BME280;20454;48.100;11.776;2022-09-25T12:58:41;94825.69;;;16.81;84.83
34185;BME280;20454;48.100;11.776;2022-09-25T13:04:56;94832.41;;;16.51;87.79
34185;BME280;20454;48.100;11.776;2022-09-25T13:07:57;94833.03;;;16.41;89.11
34185;BME280;20454;48.100;11.776;2022-09-25T13:13:07;94831.72;;;16.12;90.54
34185;BME280;20454;48.100;11.776;2022-09-25T13:15:37;94825.91;;;16.02;90.98
34185;BME280;20454;48.100;11.776;2022-09-25T13:18:09;94826.50;;;15.92;91.10
34185;BME280;20454;48.100;11.776;2022-09-25T13:20:39;94833.09;;;15.80;90.52
34185;BME280;20454;48.100;11.776;2022-09-25T13:23:36;94829.94;;;15.63;91.18
34185;BME280;20454;48.100;11.776;2022-09-25T13:26:10;94828.41;;;15.46;93.14
34185;BME280;20454;48.100;11.776;2022-09-25T13:28:50;94839.31;;;15.32;93.99
34185;BME280;20454;48.100;11.776;2022-09-25T13:31:22;94829.41;;;15.19;95.39
34185;BME280;20454;48.100;11.776;2022-09-25T13:34:04;94833.66;;;15.13;96.33
34185;BME280;20454;48.100;11.776;2022-09-25T13:36:40;94836.69;;;15.05;97.45
34185;BME280;20454;48.100;11.776;2022-09-25T13:39:19;94841.69;;;14.96;98.74
34185;BME280;20454;48.100;11.776;2022-09-25T13:42:21;94837.94;;;14.88;100.00
34185;BME280;20454;48.100;11.776;2022-09-25T13:45:02;94828.94;;;14.80;100.00
34185;BME280;20454;48.100;11.776;2022-09-25T14:02:57;94852.88;;;14.62;100.00
34185;BME280;20454;48.100;11.776;2022-09-25T14:05:32;94843.22;;;14.59;100.00
34185;BME280;20454;48.100;11.776;2022-09-25T14:08:13;94841.25;;;14.60;100.00
34185;BME280;20454;48.100;11.776;2022-09-25T14:10:43;94849.16;;;14.58;100.00
34185;BME280;20454;48.100;11.776;2022-09-25T14:13:14;94846.75;;;14.56;100.00
34185;BME280;20454;48.100;11.776;2022-09-25T14:15:41;94865.53;;;14.56;100.00
34185;BME280;20454;48.100;11.776;2022-09-25T14:18:33;94857.41;;;14.51;100.00
34185;BME280;20454;48.100;11.776;2022-09-25T14:21:02;94850.09;;;14.46;100.00
34185;BME280;20454;48.100;11.776;2022-09-25T14:23:30;94852.38;;;14.41;100.00
34185;BME280;20454;48.100;11.776;2022-09-25T14:26:02;94853.06;;;14.38;100.00
34185;BME280;20454;48.100;11.776;2022-09-25T14:28:44;94847.78;;;14.33;100.00
34185;BME280;20454;48.100;11.776;2022-09-25T14:39:36;94833.28;;;14.15;100.00
34185;BME280;20454;48.100;11.776;2022-09-25T14:47:41;94833.78;;;14.33;100.00
34185;BME280;20454;48.100;11.776;2022-09-25T14:50:26;94844.66;;;14.38;100.00
34185;BME280;20454;48.100;11.776;2022-09-25T14:52:55;94846.69;;;14.37;100.00
34185;BME280;20454;48.100;11.776;2022-09-25T14:55:28;94848.75;;;14.40;100.00
34185;BME280;20454;48.100;11.776;2022-09-25T14:57:55;94849.28;;;14.46;100.00
34185;BME280;20454;48.100;11.776;2022-09-25T15:00:25;94849.56;;;14.56;100.00
34185;BME280;20454;48.100;11.776;2022-09-25T15:02:55;94838.97;;;14.65;100.00
34185;BME280;20454;48.100;11.776;2022-09-25T15:07:49;94832.56;;;14.99;100.00
34185;BME280;20454;48.100;11.776;2022-09-25T15:10:35;94837.66;;;15.12;100.00
34185;BME280;20454;48.100;11.776;2022-09-25T15:13:12;94841.34;;;15.16;100.00
34185;BME280;20454;48.100;11.776;2022-09-25T15:15:41;94841.78;;;15.18;100.00
34185;BME280;20454;48.100;11.776;2022-09-25T15:18:28;94840.09;;;15.14;100.00
34185;BME280;20454;48.100;11.776;2022-09-25T15:20:54;94842.22;;;15.01;100.00
34185;BME280;20454;48.100;11.776;2022-09-25T15:23:21;94836.47;;;14.94;100.00
34185;BME280;20454;48.100;11.776;2022-09-25T15:25:51;94826.56;;;14.82;100.00
34185;BME280;20454;48.100;11.776;2022-09-25T15:28:22;94841.56;;;14.74;100.00
34185;BME280;20454;48.100;11.776;2022-09-25T15:30:59;94844.91;;;14.64;100.00
34185;BME280;20454;48.100;11.776;2022-09-25T15:33:31;94844.31;;;14.55;100.00
34185;BME280;20454;48.100;11.776;2022-09-25T15:36:22;94849.75;;;14.48;100.00
34185;BME280;20454;48.100;11.776;2022-09-25T15:38:58;94841.00;;;14.34;100.00
34185;BME280;20454;48.100;11.776;2022-09-25T15:41:24;94849.22;;;14.27;100.00
34185;BME280;20454;48.100;11.776;2022-09-25T15:43:51;94841.00;;;14.18;100.00
34185;BME280;20454;48.100;11.776;2022-09-25T15:46:36;94839.88;;;14.07;100.00
34185;BME280;20454;48.100;11.776;2022-09-25T15:49:03;94852.13;;;14.03;100.00
34185;BME280;20454;48.100;11.776;2022-09-25T15:51:31;94842.03;;;13.98;100.00
34185;BME280;20454;48.100;11.776;2022-09-25T15:54:30;94837.97;;;13.96;100.00
34185;BME280;20454;48.100;11.776;2022-09-25T15:56:57;94845.47;;;13.92;100.00
34185;BME280;20454;48.100;11.776;2022-09-25T15:59:44;94847.25;;;13.84;100.00
34185;BME280;20454;48.100;11.776;2022-09-25T16:02:29;94847.88;;;13.78;100.00
34185;BME280;20454;48.100;11.776;2022-09-25T16:05:15;94844.16;;;13.74;100.00
34185;BME280;20454;48.100;11.776;2022-09-25T16:07:46;94848.13;;;13.73;100.00
34185;BME280;20454;48.100;11.776;2022-09-25T16:15:41;94859.13;;;13.66;100.00
34185;BME280;20454;48.100;11.776;2022-09-25T16:20:46;94853.69;;;13.57;100.00
34185;BME280;20454;48.100;11.776;2022-09-25T16:23:27;94865.25;;;13.56;100.00
34185;BME280;20454;48.100;11.776;2022-09-25T16:25:54;94856.03;;;13.55;100.00
34185;BME280;20454;48.100;11.776;2022-09-25T16:28:29;94862.34;;;13.52;100.00
34185;BME280;20454;48.100;11.776;2022-09-25T16:31:06;94859.06;;;13.50;100.00
34185;BME280;20454;48.100;11.776;2022-09-25T16:33:37;94862.25;;;13.49;100.00
34185;BME280;20454;48.100;11.776;2022-09-25T16:36:13;94866.91;;;13.45;100.00
34185;BME280;20454;48.100;11.776;2022-09-25T17:02:43;94854.81;;;13.01;100.00
34185;BME280;20454;48.100;11.776;2022-09-25T17:05:18;94850.31;;;12.97;100.00
34185;BME280;20454;48.100;11.776;2022-09-25T17:07:49;94850.50;;;12.92;100.00
34185;BME280;20454;48.100;11.776;2022-09-25T17:10:18;94845.19;;;12.87;100.00
34185;BME280;20454;48.100;11.776;2022-09-25T17:12:47;94852.97;;;12.81;100.00
34185;BME280;20454;48.100;11.776;2022-09-25T17:17:47;94857.88;;;12.72;100.00
34185;BME280;20454;48.100;11.776;2022-09-25T17:20:14;94858.94;;;12.68;100.00
34185;BME280;20454;48.100;11.776;2022-09-25T17:22:40;94857.56;;;12.62;100.00
34185;BME280;20454;48.100;11.776;2022-09-25T17:27:55;94860.13;;;12.55;100.00
34185;BME280;20454;48.100;11.776;2022-09-25T17:30:20;94861.97;;;12.51;100.00
34185;BME280;20454;48.100;11.776;2022-09-25T17:32:48;94858.72;;;12.49;100.00
34185;BME280;20454;48.100;11.776;2022-09-25T17:35:35;94864.19;;;12.45;100.00
34185;BME280;20454;48.100;11.776;2022-09-25T17:38:02;94856.06;;;12.40;100.00
34185;BME280;20454;48.100;11.776;2022-09-25T17:40:28;94860.84;;;12.40;100.00